createdAt,value
2022-11-18T00:01:56.695Z,100150.59
2022-11-18T00:04:25.432Z,100143.91
2022-11-18T00:06:54.161Z,100160.84
2022-11-18T00:09:23.238Z,100163.00
2022-11-18T00:12:09.653Z,100159.38
2022-11-18T00:14:39.790Z,100159.59
2022-11-18T00:17:09.278Z,100161.16
2022-11-18T00:19:41.640Z,100157.16
2022-11-18T00:22:14.850Z,100158.97
2022-11-18T00:24:43.536Z,100166.03
2022-11-18T00:27:12.072Z,100169.59
2022-11-18T00:29:42.216Z,100171.31
2022-11-18T00:32:10.830Z,100166.19
2022-11-18T00:34:39.477Z,100177.75
2022-11-18T00:37:08.120Z,100178.97
2022-11-18T00:39:36.856Z,100177.41
2022-11-18T00:42:23.406Z,100165.88
2022-11-18T00:44:53.502Z,100176.06
2022-11-18T00:47:22.174Z,100175.66
2022-11-18T00:49:50.967Z,100187.69
2022-11-18T00:52:19.549Z,100192.75
2022-11-18T00:54:48.418Z,100191.84
2022-11-18T00:57:17.093Z,100192.47
2022-11-18T00:59:45.865Z,100187.13
2022-11-18T01:02:15.870Z,100188.34
2022-11-18T01:04:44.544Z,100183.69
2022-11-18T01:07:13.188Z,100190.34
2022-11-18T01:09:42.045Z,100196.25
2022-11-18T01:12:29.938Z,100192.34
2022-11-18T01:15:00.694Z,100198.69
2022-11-18T01:17:33.363Z,100192.28
2022-11-18T01:20:02.185Z,100199.25
2022-11-18T01:22:30.838Z,100208.59
2022-11-18T01:24:59.461Z,100213.75
2022-11-18T01:27:28.107Z,100210.88
2022-11-18T01:29:56.731Z,100214.44
2022-11-18T01:32:25.894Z,100210.88
2022-11-18T01:34:56.062Z,100211.72
2022-11-18T01:37:24.794Z,100206.00
2022-11-18T01:39:53.446Z,100219.50
2022-11-18T01:42:21.995Z,100217.94
2022-11-18T01:45:18.000Z,100215.47
2022-11-18T01:47:55.341Z,100208.16
2022-11-18T01:50:27.916Z,100219.78
2022-11-18T01:53:02.881Z,100221.78
2022-11-18T01:55:37.040Z,100226.16
2022-11-18T01:58:14.144Z,100235.00
2022-11-18T02:00:43.143Z,100230.16
2022-11-18T02:03:12.194Z,100231.50
2022-11-18T02:05:45.361Z,100232.50
2022-11-18T02:08:15.688Z,100229.06
2022-11-18T02:10:44.233Z,100226.59
2022-11-18T02:13:14.363Z,100231.72
2022-11-18T02:15:59.840Z,100227.34
2022-11-18T02:18:43.981Z,100219.94
2022-11-18T02:21:37.786Z,100210.75
2022-11-18T02:24:43.746Z,100214.59
2022-11-18T02:28:04.248Z,100220.56
2022-11-18T02:30:45.943Z,100216.31
2022-11-18T02:33:24.431Z,100225.72
2022-11-18T02:36:03.520Z,100226.66
2022-11-18T02:38:41.304Z,100227.16
2022-11-18T02:41:17.469Z,100232.56
2022-11-18T02:43:53.114Z,100232.44
2022-11-18T02:46:31.115Z,100239.28
2022-11-18T02:49:00.865Z,100243.91
2022-11-18T02:51:33.220Z,100234.41
2022-11-18T02:54:08.292Z,100240.75
2022-11-18T02:56:38.305Z,100226.06
2022-11-18T02:59:07.969Z,100236.69
2022-11-18T03:01:38.654Z,100230.50
2022-11-18T03:04:07.207Z,100232.41
2022-11-18T03:06:40.267Z,100240.41
2022-11-18T03:09:17.143Z,100240.41
2022-11-18T03:11:58.332Z,100238.69
2022-11-18T03:14:40.086Z,100240.16
2022-11-18T03:17:19.240Z,100245.75
2022-11-18T03:20:04.929Z,100240.25
2022-11-18T03:22:41.704Z,100243.00
2022-11-18T03:25:20.037Z,100244.53
2022-11-18T03:27:57.290Z,100237.63
2022-11-18T03:30:28.318Z,100238.06
2022-11-18T03:33:07.449Z,100235.09
2022-11-18T03:35:43.297Z,100262.50
2022-11-18T03:38:18.829Z,100256.53
2022-11-18T03:40:55.034Z,100264.34
2022-11-18T03:43:28.680Z,100266.69
2022-11-18T03:46:05.408Z,100270.53
2022-11-18T03:48:43.484Z,100266.72
2022-11-18T03:51:19.998Z,100265.97
2022-11-18T03:53:58.992Z,100267.03
2022-11-18T03:56:34.070Z,100268.63
2022-11-18T03:59:10.830Z,100267.16
2022-11-18T04:01:48.072Z,100260.06
2022-11-18T04:04:18.449Z,100267.75
2022-11-18T04:06:51.624Z,100271.94
2022-11-18T04:09:28.093Z,100277.56
2022-11-18T04:12:03.810Z,100268.28
2022-11-18T04:14:35.751Z,100270.06
2022-11-18T04:17:10.556Z,100275.44
2022-11-18T04:19:41.355Z,100279.22
2022-11-18T04:22:11.513Z,100290.56
2022-11-18T04:24:40.681Z,100287.94
2022-11-18T04:27:09.972Z,100286.94
2022-11-18T04:29:38.559Z,100294.88
2022-11-18T04:32:07.592Z,100293.06
2022-11-18T04:34:36.295Z,100298.16
2022-11-18T04:37:06.407Z,100303.94
2022-11-18T04:39:35.016Z,100306.50
2022-11-18T04:42:03.647Z,100300.31
2022-11-18T04:44:35.360Z,100308.50
2022-11-18T04:47:08.384Z,100301.75
2022-11-18T04:49:37.572Z,100301.63
2022-11-18T04:52:08.074Z,100303.44
2022-11-18T04:54:36.850Z,100312.06
2022-11-18T04:57:05.900Z,100309.31
2022-11-18T04:59:34.639Z,100309.19
2022-11-18T05:02:03.263Z,100308.97
2022-11-18T05:04:34.603Z,100315.84
2022-11-18T05:07:07.995Z,100322.41
2022-11-18T05:09:36.959Z,100320.69
2022-11-18T05:12:23.686Z,100318.81
2022-11-18T05:14:52.784Z,100323.69
2022-11-18T05:17:21.559Z,100319.91
2022-11-18T05:19:50.531Z,100337.59
2022-11-18T05:22:20.931Z,100328.06
2022-11-18T05:24:50.373Z,100337.50
2022-11-18T05:27:19.504Z,100343.63
2022-11-18T05:29:49.305Z,100342.72
2022-11-18T05:32:18.783Z,100355.75
2022-11-18T05:34:47.384Z,100342.38
2022-11-18T05:37:16.146Z,100358.75
2022-11-18T05:39:46.655Z,100368.81
2022-11-18T05:42:32.958Z,100361.59
2022-11-18T05:45:01.942Z,100360.50
2022-11-18T05:47:50.920Z,100367.66
2022-11-18T05:50:21.464Z,100376.19
2022-11-18T05:52:50.515Z,100380.47
2022-11-18T05:55:26.015Z,100384.13
2022-11-18T05:57:55.227Z,100382.41
2022-11-18T06:00:24.376Z,100382.66
2022-11-18T06:02:56.388Z,100376.53
2022-11-18T06:05:30.139Z,100392.22
2022-11-18T06:07:59.752Z,100396.50
2022-11-18T06:10:39.340Z,100396.72
2022-11-18T06:13:17.508Z,100395.09
2022-11-18T06:15:47.987Z,100398.63
2022-11-18T06:18:25.648Z,100408.25
2022-11-18T06:21:00.522Z,100403.94
2022-11-18T06:23:32.348Z,100402.22
2022-11-18T06:26:03.392Z,100406.66
2022-11-18T06:28:32.901Z,100411.16
2022-11-18T06:31:01.775Z,100410.97
2022-11-18T06:33:30.733Z,100420.56
2022-11-18T06:35:59.523Z,100419.28
2022-11-18T06:38:30.530Z,100418.66
2022-11-18T06:41:03.005Z,100433.72
2022-11-18T06:43:42.086Z,100434.69
2022-11-18T06:46:32.629Z,100442.16
2022-11-18T06:49:02.971Z,100452.97
2022-11-18T06:51:33.078Z,100458.22
2022-11-18T06:54:09.124Z,100454.50
2022-11-18T06:56:40.827Z,100462.25
2022-11-18T06:59:09.818Z,100460.38
2022-11-18T07:01:42.272Z,100459.53
2022-11-18T07:04:11.059Z,100456.81
2022-11-18T07:06:39.986Z,100471.75
2022-11-18T07:09:09.627Z,100472.84
2022-11-18T07:11:41.675Z,100481.84
2022-11-18T07:14:11.370Z,100480.03
2022-11-18T07:16:40.384Z,100480.22
2022-11-18T07:19:15.472Z,100488.38
2022-11-18T07:21:44.415Z,100488.19
2022-11-18T07:24:16.272Z,100488.09
2022-11-18T07:26:47.808Z,100483.38
2022-11-18T07:29:16.730Z,100496.41
2022-11-18T07:31:45.664Z,100497.38
2022-11-18T07:34:14.848Z,100493.91
2022-11-18T07:36:43.605Z,100503.59
2022-11-18T07:39:12.554Z,100504.47
2022-11-18T07:41:43.068Z,100507.28
2022-11-18T07:44:18.174Z,100514.31
2022-11-18T07:46:48.358Z,100521.94
2022-11-18T07:49:18.280Z,100523.66
2022-11-18T07:51:48.744Z,100523.66
2022-11-18T07:54:20.360Z,100529.56
2022-11-18T07:56:49.224Z,100534.47
2022-11-18T07:59:20.885Z,100541.50
2022-11-18T08:01:51.279Z,100540.84
2022-11-18T08:04:20.837Z,100538.50
2022-11-18T08:06:50.133Z,100531.81
2022-11-18T08:09:20.572Z,100538.28
2022-11-18T08:11:50.317Z,100526.66
2022-11-18T08:14:22.470Z,100531.22
2022-11-18T08:16:52.763Z,100528.47
2022-11-18T08:19:22.358Z,100523.72
2022-11-18T08:21:55.025Z,100525.91
2022-11-18T08:24:25.235Z,100521.75
2022-11-18T08:26:54.321Z,100534.78
2022-11-18T08:29:26.024Z,100528.06
2022-11-18T08:31:55.072Z,100531.88
2022-11-18T08:34:24.186Z,100524.88
2022-11-18T08:36:53.007Z,100523.09
2022-11-18T08:39:24.507Z,100531.22
2022-11-18T08:41:53.699Z,100530.66
2022-11-18T08:44:23.821Z,100532.41
2022-11-18T08:46:52.577Z,100535.28
2022-11-18T08:49:21.740Z,100529.09
2022-11-18T08:51:50.569Z,100521.56
2022-11-18T08:54:33.779Z,100516.50
2022-11-18T08:57:05.013Z,100517.88
2022-11-18T08:59:35.166Z,100526.28
2022-11-18T09:02:04.105Z,100519.00
2022-11-18T09:04:33.118Z,100526.47
2022-11-18T09:07:03.234Z,100522.00
2022-11-18T09:09:31.875Z,100527.38
2022-11-18T09:12:00.602Z,100528.94
2022-11-18T09:15:12.237Z,100520.72
2022-11-18T09:17:20.800Z,100514.47
2022-11-18T09:19:49.671Z,100508.47
2022-11-18T09:22:18.688Z,100505.53
2022-11-18T09:24:47.391Z,100504.19
2022-11-18T09:27:17.557Z,100500.75
2022-11-18T09:29:47.037Z,100521.00
2022-11-18T09:32:15.797Z,100522.94
2022-11-18T09:34:48.883Z,100520.72
2022-11-18T09:37:18.081Z,100530.00
2022-11-18T09:39:47.116Z,100527.44
2022-11-18T09:42:37.689Z,100534.28
2022-11-18T09:45:25.195Z,100530.13
2022-11-18T09:48:00.123Z,100524.13
2022-11-18T09:53:23.684Z,100528.78
2022-11-18T09:55:54.783Z,100516.13
2022-11-18T09:58:32.781Z,100518.75
2022-11-18T10:01:02.525Z,100527.06
2022-11-18T10:03:35.695Z,100531.13
2022-11-18T10:06:23.547Z,100532.44
2022-11-18T10:09:12.189Z,100522.66
2022-11-18T10:11:52.138Z,100524.22
2022-11-18T10:14:41.111Z,100526.41
2022-11-18T10:17:27.587Z,100524.19
2022-11-18T10:20:13.639Z,100528.47
2022-11-18T10:22:53.770Z,100524.44
2022-11-18T10:25:22.872Z,100523.56
2022-11-18T10:27:53.190Z,100534.00
2022-11-18T10:30:32.940Z,100538.72
2022-11-18T10:33:18.614Z,100536.09
2022-11-18T10:35:48.092Z,100536.88
2022-11-18T10:38:24.804Z,100553.78
2022-11-18T10:41:03.227Z,100538.50
2022-11-18T10:43:49.907Z,100543.84
2022-11-18T10:46:27.250Z,100556.19
2022-11-18T10:49:18.171Z,100555.97
2022-11-18T10:51:49.928Z,100554.13
2022-11-18T10:54:23.893Z,100567.78
2022-11-18T10:56:58.737Z,100552.72
2022-11-18T10:59:34.118Z,100562.09
2022-11-18T11:02:17.603Z,100558.63
2022-11-18T11:04:48.164Z,100558.03
2022-11-18T11:07:29.172Z,100560.94
2022-11-18T11:10:23.609Z,100566.88
2022-11-18T11:13:01.346Z,100579.00
2022-11-18T11:15:39.659Z,100573.06
2022-11-18T11:18:37.850Z,100569.84
2022-11-18T11:21:13.632Z,100564.16
2022-11-18T11:23:46.127Z,100566.38
2022-11-18T11:29:36.336Z,100567.44
2022-11-18T11:32:22.530Z,100564.94
2022-11-18T11:35:04.135Z,100574.88
2022-11-18T11:37:48.649Z,100561.88
2022-11-18T11:40:34.930Z,100567.41
2022-11-18T11:43:25.688Z,100556.81
2022-11-18T11:46:28.190Z,100571.28
2022-11-18T11:49:18.451Z,100572.06
2022-11-18T11:51:55.660Z,100570.63
2022-11-18T11:54:49.608Z,100558.75
2022-11-18T11:57:37.547Z,100563.38
2022-11-18T12:00:15.211Z,100562.94
2022-11-18T12:03:16.653Z,100574.69
2022-11-18T12:05:46.076Z,100571.34
2022-11-18T12:08:19.247Z,100580.63
2022-11-18T12:10:55.116Z,100583.44
2022-11-18T12:13:44.247Z,100577.66
2022-11-18T12:16:33.156Z,100578.31
2022-11-18T12:19:10.505Z,100597.56
2022-11-18T12:22:04.085Z,100599.09
2022-11-18T12:24:39.071Z,100603.09
2022-11-18T12:27:15.948Z,100614.94
2022-11-18T12:30:05.333Z,100605.56
2022-11-18T12:32:43.002Z,100609.63
2022-11-18T12:35:29.830Z,100612.94
2022-11-18T12:38:06.274Z,100619.78
2022-11-18T12:40:46.082Z,100624.19
2022-11-18T12:44:14.296Z,100618.34
2022-11-18T12:46:58.101Z,100619.34
2022-11-18T12:50:18.093Z,100619.53
2022-11-18T12:52:57.133Z,100626.19
2022-11-18T12:55:42.551Z,100627.66
2022-11-18T12:58:26.268Z,100624.13
2022-11-18T13:01:08.898Z,100643.44
2022-11-18T13:03:38.317Z,100641.66
2022-11-18T13:06:25.636Z,100640.78
2022-11-18T13:09:02.275Z,100624.19
2022-11-18T13:11:48.625Z,100615.50
2022-11-18T13:14:39.093Z,100622.84
2022-11-18T13:17:44.854Z,100623.72
2022-11-18T13:20:27.548Z,100637.56
2022-11-18T13:23:17.437Z,100638.41
2022-11-18T13:25:50.427Z,100638.25
2022-11-18T13:28:33.201Z,100643.53
2022-11-18T13:31:13.785Z,100640.44
2022-11-18T13:33:43.253Z,100659.78
2022-11-18T13:36:20.086Z,100657.63
2022-11-18T13:39:04.957Z,100655.34
2022-11-18T13:41:36.944Z,100649.78
2022-11-18T13:44:27.369Z,100658.59
2022-11-18T13:47:05.316Z,100644.56
2022-11-18T13:49:52.568Z,100644.47
2022-11-18T13:52:36.128Z,100649.38
2022-11-18T13:55:19.944Z,100647.47
2022-11-18T13:57:53.782Z,100644.25
2022-11-18T14:00:28.177Z,100669.97
2022-11-18T14:03:07.157Z,100674.63
2022-11-18T14:05:35.952Z,100686.00
2022-11-18T14:08:08.596Z,100686.31
2022-11-18T14:10:47.854Z,100687.94
2022-11-18T14:13:27.458Z,100681.84
2022-11-18T14:15:59.438Z,100685.53
2022-11-18T14:18:35.554Z,100687.13
2022-11-18T14:21:07.651Z,100684.66
2022-11-18T14:23:43.212Z,100680.16
2022-11-18T14:26:13.687Z,100682.19
2022-11-18T14:28:55.789Z,100692.22
2022-11-18T14:31:30.673Z,100688.59
2022-11-18T14:34:25.182Z,100696.72
2022-11-18T14:36:57.226Z,100693.94
2022-11-18T14:39:31.889Z,100692.47
2022-11-18T14:42:03.164Z,100698.56
2022-11-18T14:44:32.499Z,100698.63
2022-11-18T14:47:04.773Z,100703.78
2022-11-18T14:49:34.122Z,100711.06
2022-11-18T14:52:04.899Z,100734.50
2022-11-18T14:54:34.111Z,100730.28
2022-11-18T14:57:07.247Z,100739.78
2022-11-18T14:59:38.826Z,100739.16
2022-11-18T15:02:14.271Z,100740.31
2022-11-18T15:04:43.618Z,100758.81
2022-11-18T15:07:22.861Z,100757.16
2022-11-18T15:09:53.304Z,100772.50
2022-11-18T15:12:25.784Z,100769.91
2022-11-18T15:14:54.887Z,100775.47
2022-11-18T15:17:23.550Z,100788.31
2022-11-18T15:19:52.427Z,100798.63
2022-11-18T15:22:21.547Z,100797.03
2022-11-18T15:24:50.722Z,100795.69
2022-11-18T15:27:20.166Z,100802.31
2022-11-18T15:29:50.658Z,100817.25
2022-11-18T15:32:19.465Z,100813.00
2022-11-18T15:34:48.895Z,100802.13
2022-11-18T15:37:18.168Z,100796.25
2022-11-18T15:39:50.945Z,100802.78
2022-11-18T15:42:23.360Z,100804.75
2022-11-18T15:44:53.800Z,100805.59
2022-11-18T15:47:22.429Z,100812.34
2022-11-18T15:49:51.638Z,100813.59
2022-11-18T15:52:20.435Z,100817.59
2022-11-18T15:54:50.010Z,100813.88
2022-11-18T15:57:19.104Z,100816.91
2022-11-18T15:59:48.866Z,100815.50
2022-11-18T16:02:19.131Z,100822.13
2022-11-18T16:04:47.944Z,100828.69
2022-11-18T16:07:17.163Z,100831.81
2022-11-18T16:10:06.213Z,100840.25
2022-11-18T16:12:50.076Z,100836.25
2022-11-18T16:15:37.265Z,100840.88
2022-11-18T16:18:08.173Z,100848.91
2022-11-18T16:20:39.919Z,100855.97
2022-11-18T16:23:12.177Z,100863.16
2022-11-18T16:25:48.706Z,100862.28
2022-11-18T16:28:17.774Z,100870.47
2022-11-18T16:31:08.178Z,100881.91
2022-11-18T16:33:50.764Z,100883.25
2022-11-18T16:36:27.807Z,100887.72
2022-11-18T16:38:58.439Z,100882.91
2022-11-18T16:41:36.346Z,100883.94
2022-11-18T16:44:08.576Z,100891.25
2022-11-18T16:46:43.439Z,100889.75
2022-11-18T16:49:19.747Z,100890.72
2022-11-18T16:51:54.634Z,100898.75
2022-11-18T16:54:26.072Z,100905.06
2022-11-18T16:56:59.266Z,100914.09
2022-11-18T16:59:30.494Z,100909.91
2022-11-18T17:02:02.102Z,100901.41
2022-11-18T17:04:35.349Z,100907.66
2022-11-18T17:07:07.191Z,100910.41
2022-11-18T17:09:36.169Z,100906.19
2022-11-18T17:12:06.083Z,100910.56
2022-11-18T17:14:38.649Z,100914.69
2022-11-18T17:17:08.218Z,100912.19
2022-11-18T17:19:39.252Z,100912.91
2022-11-18T17:22:15.727Z,100917.44
2022-11-18T17:24:44.552Z,100916.44
2022-11-18T17:27:14.811Z,100924.38
2022-11-18T17:29:48.257Z,100935.84
2022-11-18T17:32:17.116Z,100929.91
2022-11-18T17:34:48.411Z,100938.72
2022-11-18T17:37:17.562Z,100930.09
2022-11-18T17:39:51.693Z,100937.19
2022-11-18T17:42:26.572Z,100950.78
2022-11-18T17:44:55.591Z,100942.56
2022-11-18T17:47:30.405Z,100948.50
2022-11-18T17:50:01.464Z,100945.25
2022-11-18T17:52:30.147Z,100954.31
2022-11-18T17:55:03.136Z,100964.97
2022-11-18T17:57:32.312Z,100952.81
2022-11-18T18:00:01.447Z,100943.38
2022-11-18T18:02:30.626Z,100943.38
2022-11-18T18:05:01.285Z,100940.47
2022-11-18T18:07:35.817Z,100934.06
2022-11-18T18:10:06.199Z,100927.78
2022-11-18T18:12:54.528Z,100937.28
2022-11-18T18:15:23.219Z,100947.16
2022-11-18T18:17:52.564Z,100949.59
2022-11-18T18:20:25.530Z,100944.88
2022-11-18T18:22:57.969Z,100947.25
2022-11-18T18:25:32.998Z,100958.56
2022-11-18T18:28:07.277Z,100967.50
2022-11-18T18:30:37.627Z,100966.91
2022-11-18T18:33:08.018Z,100971.66
2022-11-18T18:35:42.588Z,100977.09
2022-11-18T18:38:11.830Z,100981.84
2022-11-18T18:40:42.333Z,100989.22
2022-11-18T18:43:13.462Z,101000.66
2022-11-18T18:46:00.977Z,101001.72
2022-11-18T18:48:30.569Z,101005.44
2022-11-18T18:51:08.934Z,101016.91
2022-11-18T18:53:38.421Z,101016.00
2022-11-18T18:56:10.964Z,101026.41
2022-11-18T18:58:39.609Z,101025.59
2022-11-18T19:01:16.521Z,101027.44
2022-11-18T19:03:46.507Z,101024.09
2022-11-18T19:09:14.017Z,101020.91
2022-11-18T19:12:03.149Z,101019.34
2022-11-18T19:14:37.037Z,101021.13
2022-11-18T19:17:11.144Z,101029.75
2022-11-18T19:20:01.797Z,101027.13
2022-11-18T19:22:34.483Z,101029.47
2022-11-18T19:25:07.839Z,101036.31
2022-11-18T19:27:40.199Z,101041.44
2022-11-18T19:30:13.122Z,101043.25
2022-11-18T19:32:43.085Z,101054.75
2022-11-18T19:35:14.493Z,101067.97
2022-11-18T19:37:45.484Z,101067.19
2022-11-18T19:40:20.524Z,101074.13
2022-11-18T19:42:54.946Z,101078.47
2022-11-18T19:45:24.758Z,101088.16
2022-11-18T19:47:55.387Z,101086.50
2022-11-18T19:50:25.574Z,101082.22
2022-11-18T19:53:25.393Z,101085.94
2022-11-18T19:56:03.386Z,101087.69
2022-11-18T19:58:35.377Z,101083.38
2022-11-18T20:01:19.819Z,101093.84
2022-11-18T20:03:51.177Z,101099.00
2022-11-18T20:06:22.587Z,101099.88
2022-11-18T20:08:54.184Z,101101.72
2022-11-18T20:11:24.803Z,101094.66
2022-11-18T20:13:54.362Z,101101.75
2022-11-18T20:16:28.902Z,101107.06
2022-11-18T20:19:02.890Z,101112.44
2022-11-18T20:21:40.631Z,101101.00
2022-11-18T20:24:17.444Z,101108.16
2022-11-18T20:26:48.129Z,101105.63
2022-11-18T20:29:18.548Z,101106.41
2022-11-18T20:31:47.600Z,101108.22
2022-11-18T20:34:21.512Z,101113.31
2022-11-18T20:36:53.783Z,101106.28
2022-11-18T20:39:37.579Z,101108.88
2022-11-18T20:42:23.641Z,101109.84
2022-11-18T20:44:52.347Z,101107.25
2022-11-18T20:47:27.959Z,101099.38
2022-11-18T20:49:58.144Z,101101.19
2022-11-18T20:52:35.194Z,101110.72
2022-11-18T20:55:13.301Z,101116.91
2022-11-18T20:57:42.299Z,101110.88
2022-11-18T21:00:19.131Z,101111.03
2022-11-18T21:02:51.076Z,101118.06
2022-11-18T21:05:20.136Z,101121.63
2022-11-18T21:07:50.694Z,101126.00
2022-11-18T21:10:22.162Z,101114.59
2022-11-18T21:13:11.059Z,101122.44
2022-11-18T21:15:39.700Z,101120.75
2022-11-18T21:18:08.830Z,101119.91
2022-11-18T21:20:55.261Z,101121.75
2022-11-18T21:23:24.348Z,101131.34
2022-11-18T21:26:13.024Z,101129.69
2022-11-18T21:28:45.209Z,101140.03
2022-11-18T21:31:23.204Z,101136.59
2022-11-18T21:33:58.935Z,101140.16
2022-11-18T21:36:33.291Z,101148.88
2022-11-18T21:39:03.581Z,101151.50
2022-11-18T21:41:34.244Z,101145.38
2022-11-18T21:44:06.240Z,101146.31
2022-11-18T21:46:36.729Z,101155.94
2022-11-18T21:49:07.195Z,101157.75
2022-11-18T21:51:36.980Z,101165.63
2022-11-18T21:54:09.515Z,101165.72
2022-11-18T21:56:39.971Z,101167.41
2022-11-18T21:59:09.490Z,101163.03
2022-11-18T22:01:39.192Z,101161.38
2022-11-18T22:04:08.549Z,101160.50
2022-11-18T22:06:37.800Z,101163.94
2022-11-18T22:09:10.390Z,101162.97
2022-11-18T22:11:42.600Z,101162.03
2022-11-18T22:14:12.125Z,101160.28
2022-11-18T22:16:43.818Z,101167.34
2022-11-18T22:19:15.734Z,101160.44
2022-11-18T22:21:47.606Z,101161.31
2022-11-18T22:24:16.544Z,101159.66
2022-11-18T22:26:47.125Z,101171.81
2022-11-18T22:29:16.371Z,101172.75
2022-11-18T22:31:45.826Z,101172.84
2022-11-18T22:34:16.158Z,101181.63
2022-11-18T22:36:44.878Z,101172.06
2022-11-18T22:39:13.709Z,101176.47
2022-11-18T22:41:59.871Z,101171.28
2022-11-18T22:44:30.173Z,101162.63
2022-11-18T22:46:59.222Z,101162.63
2022-11-18T22:49:28.391Z,101166.03
2022-11-18T22:51:58.620Z,101161.50
2022-11-18T22:54:43.220Z,101152.84
2022-11-18T22:57:12.248Z,101157.25
2022-11-18T22:59:42.702Z,101168.59
2022-11-18T23:02:11.743Z,101162.44
2022-11-18T23:04:43.803Z,101174.53
2022-11-18T23:07:12.616Z,101174.59
2022-11-18T23:09:42.076Z,101173.84
2022-11-18T23:12:28.564Z,101180.91
2022-11-18T23:14:58.797Z,101179.09
2022-11-18T23:17:30.724Z,101186.16
2022-11-18T23:20:01.578Z,101174.91
2022-11-18T23:22:30.540Z,101174.97
2022-11-18T23:25:03.903Z,101178.50
2022-11-18T23:27:33.584Z,101178.53
2022-11-18T23:30:08.576Z,101182.03
2022-11-18T23:32:37.460Z,101182.00
2022-11-18T23:35:07.386Z,101182.03
2022-11-18T23:37:39.010Z,101178.59
2022-11-18T23:40:10.471Z,101186.44
2022-11-18T23:42:45.335Z,101191.69
2022-11-18T23:45:18.176Z,101189.13
2022-11-18T23:47:46.862Z,101191.75
2022-11-18T23:50:16.907Z,101187.41
2022-11-18T23:52:46.103Z,101190.03
2022-11-18T23:55:18.449Z,101188.31
2022-11-18T23:57:51.464Z,101185.69
